Airfield :
LOGIN :

Register | Disclaimer

   EN    FR    IT 

 










Legend :    VFR   Marginal VFR   IFR   Intensive IFR   Very Intensive IFR
Visi :
Ceiling :
>= 8 km
>= 3000ft
5 to 8 km
1000 to 3000 ft
1500m to 5 km
500 to 1000 ft
800 to 1500m
200 to 500 ft
< 800m
< 200 ft
Symbols :   Thunderstorms  Fog  Heavy snow  Heavy precipitations  Wind > 20 kt
SIGMETs :     Misc.  Thunderstorms  Icing  Turbulence  Mountain Waves  Volcanic Ashes






- Airport Elevation : 2096 ft
- IATA code : AUR


LFLW - Aurillac

CURRENT METAR :
  • 221000Z AUTO 10016G27KT 9999 ////// 09/02 Q1028

EXPIRED METARs :
  • 220930Z AUTO 10013KT 9999 ////// 08/00 Q1028
  • 220900Z AUTO 10012KT 9999 ////// 09/M00 Q1028
  • 220830Z AUTO 10012KT 9999 ////// 09/M01 Q1028
  • 220800Z AUTO 10012KT 9999 ////// 09/M01 Q1027
  • 220730Z AUTO 11011KT 9999 ////// 08/M01 Q1027

TAF TAF LFLW
Valid from the 22 at 09:00 until the 22 at 18:00 UTC


220800Z 2209/2218 11014KT 9999 SCT016 BKN040
TEMPO 2210/2218 11018G28KT



MET'MAP, your aeronautical weather chart ! - Copyright ORBIFLY December 2007 - Disclaimer

ORBIFLY MET'MAP TEAM :

Programming & Development : Alexandra Zaïnal
Concept & original design : Baudouin d'Aumeries
Assistance for programming : Marc-Olivier Méhu
Technical & hardware support : Manuel Goepfert

Contact : metmap@orbifly.com




SOURCES & CREDITS :

   NOAA